Time;durP1;ratioP1;P1;durP2;ratioP2;P2;SDS_P1;SDS_P2;PMS_P1;PMS_P2;Temp;Humidity;BMP_temperature;BMP_pressure;BME280_temperature;BME280_humidity;BME280_pressure;Samples;Min_cycle;Max_cycle;Signal;HPM_P1;HPM_P2
2021/12/21 00:00:17;;;;;;;2.17;1.30;;;3.00;99.90;;;;;;5019551;28;20215;-74
2021/12/21 00:02:49;;;;;;;2.23;1.30;;;3.00;99.90;;;;;;5013077;28;20577;-74
2021/12/21 00:05:20;;;;;;;3.00;1.57;;;3.00;99.90;;;;;;5030808;28;20497;-74
2021/12/21 00:07:48;;;;;;;6.43;1.70;;;2.90;99.90;;;;;;5013901;28;20538;-74
2021/12/21 00:10:15;;;;;;;1.40;1.30;;;2.90;99.90;;;;;;5012282;28;20555;-73
2021/12/21 00:12:59;;;;;;;3.80;1.10;;;2.90;99.90;;;;;;5013578;28;20465;-74
2021/12/21 00:25:59;;;;;;;10.60;1.90;;;2.80;99.90;;;;;;5035684;28;20497;-74
2021/12/21 00:28:26;;;;;;;0.80;0.80;;;2.80;99.90;;;;;;5012839;28;20487;-71
2021/12/21 00:30:52;;;;;;;2.13;1.63;;;2.70;99.90;;;;;;5031087;28;20818;-73
2021/12/21 00:33:18;;;;;;;2.00;1.33;;;2.70;99.90;;;;;;5012732;28;20501;-74
2021/12/21 00:35:44;;;;;;;2.70;1.23;;;2.70;99.90;;;;;;5029736;28;20451;-73
2021/12/21 00:38:10;;;;;;;3.10;1.60;;;2.70;99.90;;;;;;5012590;28;20455;-72
2021/12/21 00:40:36;;;;;;;2.87;1.20;;;2.60;99.90;;;;;;5030944;28;20577;-73
2021/12/21 00:43:02;;;;;;;2.00;1.50;;;2.60;99.90;;;;;;5011962;28;20235;-74
2021/12/21 00:45:28;;;;;;;2.60;1.50;;;2.60;99.90;;;;;;5012828;28;20224;-73
2021/12/21 00:47:53;;;;;;;3.70;1.73;;;2.60;99.90;;;;;;5029951;28;20459;-74
2021/12/21 00:50:21;;;;;;;1.57;1.10;;;2.60;99.90;;;;;;5009173;28;20213;-73
2021/12/21 00:52:50;;;;;;;5.17;2.10;;;2.60;99.90;;;;;;4993440;28;20240;-73
2021/12/21 00:55:17;;;;;;;2.80;1.70;;;2.60;99.90;;;;;;5005003;28;20463;-74
2021/12/21 00:57:42;;;;;;;2.53;1.37;;;2.60;99.90;;;;;;5029192;28;20447;-74
2021/12/21 01:00:10;;;;;;;2.60;1.70;;;2.60;99.90;;;;;;5030223;28;20534;-73
2021/12/21 01:02:36;;;;;;;4.70;1.77;;;2.50;99.90;;;;;;5012714;28;20319;-73
2021/12/21 01:05:05;;;;;;;1.67;1.20;;;2.50;99.90;;;;;;5012629;28;20467;-73
2021/12/21 01:07:38;;;;;;;2.73;1.60;;;2.50;99.90;;;;;;5013077;28;20447;-73
2021/12/21 01:13:15;;;;;;;3.20;1.50;;;2.50;99.90;;;;;;5029555;28;21006;-74
2021/12/21 01:18:23;;;;;;;2.70;1.57;;;2.40;99.90;;;;;;5030225;28;20516;-73
2021/12/21 01:21:27;;;;;;;2.00;1.00;;;2.50;99.90;;;;;;5030740;28;20459;-72
2021/12/21 01:26:24;;;;;;;2.63;1.87;;;2.40;99.90;;;;;;5043653;28;20956;-73
2021/12/21 01:29:04;;;;;;;3.30;1.27;;;2.40;99.90;;;;;;5049084;28;20456;-72
2021/12/21 01:36:38;;;;;;;2.10;1.37;;;2.40;99.90;;;;;;5040351;28;20442;-72
2021/12/21 01:41:40;;;;;;;3.17;1.40;;;2.40;99.90;;;;;;5048953;28;20442;-71
2021/12/21 01:49:50;;;;;;;1.47;1.30;;;2.30;99.90;;;;;;5048782;28;20852;-70
2021/12/21 01:52:19;;;;;;;1.50;1.40;;;2.30;99.90;;;;;;5031519;28;20530;-73
2021/12/21 01:54:45;;;;;;;1.37;1.07;;;2.30;99.90;;;;;;5049950;28;20455;-71
2021/12/21 01:57:11;;;;;;;1.67;1.10;;;2.30;99.90;;;;;;5032007;28;20461;-72
2021/12/21 01:59:38;;;;;;;2.13;1.17;;;2.30;99.90;;;;;;5032379;28;20447;-73
2021/12/21 02:02:05;;;;;;;6.33;1.43;;;2.30;99.90;;;;;;5031492;28;20302;-74
2021/12/21 02:04:31;;;;;;;2.60;1.23;;;2.20;99.90;;;;;;5049978;28;20962;-71
2021/12/21 02:06:57;;;;;;;0.97;0.80;;;2.20;99.90;;;;;;5031961;28;20446;-73
2021/12/21 02:09:29;;;;;;;3.07;1.27;;;2.20;99.90;;;;;;5049307;28;20208;-73
2021/12/21 02:11:55;;;;;;;1.93;1.50;;;2.20;99.90;;;;;;5027889;28;20622;-72
2021/12/21 02:14:21;;;;;;;1.67;1.23;;;2.20;99.90;;;;;;5009506;28;20520;-71
2021/12/21 02:19:34;;;;;;;2.70;1.20;;;2.20;99.90;;;;;;5027196;28;20303;-71
2021/12/21 02:22:09;;;;;;;2.13;1.20;;;2.20;99.90;;;;;;5011536;28;20554;-72
2021/12/21 02:24:45;;;;;;;2.93;1.27;;;2.10;99.90;;;;;;5015047;28;20451;-73
2021/12/21 02:27:25;;;;;;;7.40;1.77;;;2.10;99.90;;;;;;5012059;28;20489;-73
2021/12/21 02:29:51;;;;;;;0.60;0.60;;;2.10;99.90;;;;;;5027627;28;20459;-73
2021/12/21 02:32:17;;;;;;;1.17;1.07;;;2.10;99.90;;;;;;5028435;28;20459;-73
2021/12/21 02:34:44;;;;;;;0.77;0.70;;;2.10;99.90;;;;;;5014093;28;20251;-73
2021/12/21 02:37:10;;;;;;;1.50;1.17;;;2.10;99.90;;;;;;5029145;28;20224;-73
2021/12/21 02:39:37;;;;;;;1.67;1.20;;;2.10;99.90;;;;;;5015662;28;20461;-72
2021/12/21 02:42:04;;;;;;;1.27;1.17;;;2.00;99.90;;;;;;5014760;28;20494;-73
2021/12/21 02:44:30;;;;;;;1.27;1.13;;;2.00;99.90;;;;;;5006482;28;20471;-73
2021/12/21 02:46:56;;;;;;;2.00;1.47;;;1.90;99.90;;;;;;5010508;28;20483;-73
2021/12/21 02:49:21;;;;;;;4.20;1.80;;;1.90;99.90;;;;;;5032337;28;20221;-73
2021/12/21 02:51:48;;;;;;;2.00;1.13;;;1.90;99.90;;;;;;5015061;28;20209;-73
2021/12/21 02:54:15;;;;;;;2.20;1.17;;;1.90;99.90;;;;;;5014505;28;20700;-72
2021/12/21 02:56:42;;;;;;;2.17;1.10;;;1.90;99.90;;;;;;5032618;28;20459;-73
2021/12/21 02:59:08;;;;;;;2.13;1.50;;;1.90;99.90;;;;;;5013966;28;20447;-72
2021/12/21 03:01:35;;;;;;;1.60;1.27;;;1.80;99.90;;;;;;5028720;28;20458;-72
2021/12/21 03:04:01;;;;;;;0.87;0.70;;;1.80;99.90;;;;;;5011853;28;20459;-73
2021/12/21 03:10:00;;;;;;;2.20;1.60;;;1.70;99.90;;;;;;5024172;28;20550;-72
2021/12/21 03:12:14;;;;;;;3.90;1.30;;;1.70;99.90;;;;;;4993847;28;20458;-71
2021/12/21 03:14:41;;;;;;;2.23;1.50;;;1.70;99.90;;;;;;5012433;28;20463;-73
2021/12/21 03:17:08;;;;;;;2.77;1.63;;;1.70;99.90;;;;;;5030492;28;20454;-72
2021/12/21 03:19:34;;;;;;;2.90;1.43;;;1.70;99.90;;;;;;5015299;28;20451;-73
2021/12/21 03:22:00;;;;;;;1.17;0.93;;;1.70;99.90;;;;;;5019039;28;20474;-73
2021/12/21 03:24:26;;;;;;;7.20;1.10;;;1.70;99.90;;;;;;5017414;28;20296;-73
2021/12/21 03:26:51;;;;;;;3.20;1.63;;;1.70;99.90;;;;;;5017537;28;20461;-73
2021/12/21 03:29:17;;;;;;;2.67;1.30;;;1.60;99.90;;;;;;5031564;28;20444;-72
2021/12/21 03:31:43;;;;;;;0.97;0.90;;;1.60;99.90;;;;;;5031958;28;20622;-73
2021/12/21 03:34:09;;;;;;;1.20;0.90;;;1.60;99.90;;;;;;5013796;28;20443;-73
2021/12/21 03:36:35;;;;;;;3.50;1.47;;;1.60;99.90;;;;;;5013881;28;20223;-72
2021/12/21 03:39:05;;;;;;;2.53;1.13;;;1.60;99.90;;;;;;5019422;28;20448;-72
2021/12/21 03:41:31;;;;;;;0.90;0.90;;;1.50;99.90;;;;;;5034146;28;20204;-70
2021/12/21 03:44:00;;;;;;;1.77;1.00;;;1.60;99.90;;;;;;5013326;28;20526;-73
2021/12/21 03:46:27;;;;;;;1.67;1.20;;;1.50;99.90;;;;;;5013853;28;21015;-71
2021/12/21 03:48:52;;;;;;;2.60;1.57;;;1.50;99.90;;;;;;4998087;28;20439;-72
2021/12/21 03:51:19;;;;;;;1.30;1.17;;;1.50;99.90;;;;;;5013176;28;20493;-71
2021/12/21 03:53:46;;;;;;;4.93;1.30;;;1.50;99.90;;;;;;5013750;28;20216;-72
2021/12/21 03:56:38;;;;;;;2.30;1.10;;;1.50;99.90;;;;;;5031151;28;20443;-71
2021/12/21 03:59:05;;;;;;;1.13;1.03;;;1.40;99.90;;;;;;5013414;28;20463;-71
2021/12/21 04:01:31;;;;;;;2.23;1.53;;;1.40;99.90;;;;;;5013619;28;20438;-70
2021/12/21 04:03:57;;;;;;;1.90;1.20;;;1.50;99.90;;;;;;5030944;28;20455;-73
2021/12/21 04:06:23;;;;;;;2.27;1.87;;;1.40;99.90;;;;;;5013490;28;20531;-73
2021/12/21 04:08:48;;;;;;;2.27;1.47;;;1.40;99.90;;;;;;5024709;28;20223;-72
2021/12/21 04:11:14;;;;;;;4.03;2.10;;;1.40;99.90;;;;;;5013683;28;20216;-72
2021/12/21 04:13:40;;;;;;;2.40;1.30;;;1.40;99.90;;;;;;5012785;28;20328;-73
2021/12/21 04:16:06;;;;;;;2.43;1.60;;;1.40;99.90;;;;;;5013415;28;20262;-71
2021/12/21 04:18:36;;;;;;;2.30;1.40;;;1.30;99.90;;;;;;5013960;28;20211;-72
2021/12/21 04:21:04;;;;;;;1.83;1.40;;;1.30;99.90;;;;;;5030974;28;20458;-71
2021/12/21 04:23:30;;;;;;;1.30;1.03;;;1.30;99.90;;;;;;5017617;28;20464;-72
2021/12/21 04:25:56;;;;;;;0.93;0.93;;;1.30;99.90;;;;;;5014465;28;20458;-72
2021/12/21 04:28:21;;;;;;;1.77;1.30;;;1.30;99.90;;;;;;5013535;28;20231;-72
2021/12/21 04:30:47;;;;;;;2.30;1.57;;;1.20;99.90;;;;;;5013354;28;20443;-72
2021/12/21 04:33:13;;;;;;;1.20;1.10;;;1.10;99.90;;;;;;5012777;28;20212;-72
2021/12/21 04:35:38;;;;;;;4.50;1.20;;;1.10;99.90;;;;;;5013306;28;20711;-72
2021/12/21 04:38:26;;;;;;;1.33;1.20;;;1.10;99.90;;;;;;5013061;28;20224;-73
2021/12/21 04:40:58;;;;;;;1.60;1.17;;;1.00;99.90;;;;;;5030321;28;20227;-72
2021/12/21 04:43:24;;;;;;;1.50;1.07;;;1.10;99.90;;;;;;4995718;28;20458;-72
2021/12/21 04:45:50;;;;;;;2.30;1.20;;;1.10;99.90;;;;;;5025472;28;20467;-73
2021/12/21 04:48:16;;;;;;;1.40;1.30;;;1.10;99.90;;;;;;5025680;28;20471;-73
2021/12/21 04:50:42;;;;;;;1.23;1.13;;;1.00;99.90;;;;;;5010049;28;20220;-73
2021/12/21 04:53:09;;;;;;;2.60;1.13;;;1.00;99.90;;;;;;5028829;28;20451;-73
2021/12/21 04:55:35;;;;;;;1.60;1.10;;;1.00;99.90;;;;;;5013119;28;20473;-73
2021/12/21 04:58:01;;;;;;;2.30;1.90;;;1.10;99.90;;;;;;5012412;28;21052;-73
2021/12/21 05:00:27;;;;;;;2.70;1.37;;;1.10;99.90;;;;;;5012669;28;20821;-73
2021/12/21 05:02:53;;;;;;;2.40;1.30;;;1.00;99.90;;;;;;5012583;28;20475;-71
2021/12/21 05:05:18;;;;;;;1.77;1.47;;;1.00;99.90;;;;;;5012285;28;20225;-73
2021/12/21 05:07:50;;;;;;;4.70;2.30;;;1.00;99.90;;;;;;5029451;28;20231;-72
2021/12/21 05:10:15;;;;;;;4.40;1.70;;;1.00;99.90;;;;;;5016639;28;20228;-72
2021/12/21 05:12:41;;;;;;;1.50;1.17;;;1.00;99.90;;;;;;5012102;28;20463;-72
2021/12/21 05:15:07;;;;;;;2.23;1.57;;;1.00;99.90;;;;;;5010266;28;20596;-73
2021/12/21 05:17:34;;;;;;;2.73;2.07;;;1.00;99.90;;;;;;5029252;28;20231;-72
2021/12/21 05:19:59;;;;;;;6.10;1.60;;;1.00;99.90;;;;;;5012559;28;20474;-73
2021/12/21 05:22:26;;;;;;;4.37;2.33;;;1.00;99.90;;;;;;5008958;28;20988;-72
2021/12/21 05:24:52;;;;;;;4.83;2.87;;;1.00;99.90;;;;;;5028566;28;20267;-73
2021/12/21 05:27:18;;;;;;;5.33;3.57;;;1.00;99.90;;;;;;5012130;28;20443;-72
2021/12/21 05:29:43;;;;;;;4.80;2.63;;;1.00;99.90;;;;;;5030373;28;20224;-72
2021/12/21 05:32:09;;;;;;;3.23;2.70;;;0.90;99.90;;;;;;5029063;28;20262;-72
2021/12/21 05:34:35;;;;;;;3.57;2.50;;;0.90;99.90;;;;;;5028952;28;20221;-72
2021/12/21 05:37:05;;;;;;;3.17;2.40;;;0.90;99.90;;;;;;5011894;28;20212;-72
2021/12/21 05:39:40;;;;;;;3.13;2.13;;;0.90;99.90;;;;;;5029242;28;20226;-72
2021/12/21 05:42:07;;;;;;;2.47;1.90;;;0.80;99.90;;;;;;5011699;28;20471;-71
2021/12/21 05:44:32;;;;;;;2.50;1.80;;;0.80;99.90;;;;;;5028058;28;20481;-72
2021/12/21 05:46:58;;;;;;;2.10;1.90;;;0.80;99.90;;;;;;5011850;28;20455;-73
2021/12/21 05:49:24;;;;;;;1.87;1.67;;;0.80;99.90;;;;;;5012488;28;20220;-72
2021/12/21 05:51:50;;;;;;;4.07;2.03;;;0.80;99.90;;;;;;5012365;28;20227;-72
2021/12/21 05:54:18;;;;;;;3.40;2.00;;;0.80;99.90;;;;;;5011662;28;20244;-72
2021/12/21 05:56:44;;;;;;;1.70;1.30;;;0.80;99.90;;;;;;5028344;28;20462;-72
2021/12/21 05:59:11;;;;;;;2.67;1.80;;;0.80;99.90;;;;;;5011905;28;20439;-72
2021/12/21 06:01:36;;;;;;;7.57;3.27;;;0.70;99.90;;;;;;5029625;28;20456;-72
2021/12/21 06:04:02;;;;;;;8.77;3.40;;;0.70;99.90;;;;;;5011394;28;20569;-72
2021/12/21 06:06:30;;;;;;;9.77;2.50;;;0.70;99.90;;;;;;5011913;28;20238;-72
2021/12/21 06:08:59;;;;;;;6.57;3.67;;;0.70;99.90;;;;;;5012994;28;20454;-73
2021/12/21 06:11:24;;;;;;;4.53;2.57;;;0.70;99.90;;;;;;5015990;28;21011;-72
2021/12/21 06:26:57;;;;;;;10.73;4.23;;;0.60;99.90;;;;;;5033200;28;20231;-72
2021/12/21 06:29:23;;;;;;;5.07;3.37;;;0.60;99.90;;;;;;5031936;28;20451;-72
2021/12/21 06:31:49;;;;;;;16.97;5.40;;;0.50;99.90;;;;;;5015313;28;20291;-72
2021/12/21 06:34:15;;;;;;;21.10;8.47;;;0.50;99.90;;;;;;5015009;28;20216;-72
2021/12/21 06:36:41;;;;;;;12.90;6.87;;;0.50;99.90;;;;;;5015578;28;20232;-71
2021/12/21 06:39:08;;;;;;;11.27;4.33;;;0.50;99.90;;;;;;5015227;28;20270;-72
2021/12/21 06:41:36;;;;;;;11.37;6.10;;;0.50;99.90;;;;;;5014435;28;20572;-70
2021/12/21 06:44:03;;;;;;;16.47;5.90;;;0.40;99.90;;;;;;5014850;28;20455;-72
2021/12/21 06:51:47;;;;;;;8.27;5.43;;;0.40;99.90;;;;;;5030888;28;20458;-72
2021/12/21 06:54:14;;;;;;;7.67;4.07;;;0.40;99.90;;;;;;5018507;28;20456;-71
2021/12/21 06:56:39;;;;;;;11.30;4.33;;;0.40;99.90;;;;;;5015149;28;21040;-71
2021/12/21 06:59:05;;;;;;;9.63;3.00;;;0.40;99.90;;;;;;5014796;28;20459;-72
2021/12/21 07:01:32;;;;;;;2.60;2.40;;;0.40;99.90;;;;;;5014396;28;20212;-71
2021/12/21 07:03:58;;;;;;;4.70;3.10;;;0.40;99.90;;;;;;5030845;28;20267;-72
2021/12/21 07:06:24;;;;;;;4.13;2.57;;;0.40;99.90;;;;;;5032391;28;20454;-72
2021/12/21 07:08:59;;;;;;;3.70;2.90;;;0.40;99.90;;;;;;5014972;28;20450;-71
2021/12/21 07:19:28;;;;;;;2.53;1.83;;;0.30;99.90;;;;;;5032055;28;20455;-71
2021/12/21 07:21:54;;;;;;;4.40;3.50;;;0.30;99.90;;;;;;5014529;28;21025;-71
2021/12/21 07:24:19;;;;;;;2.93;2.63;;;0.30;99.90;;;;;;5021981;28;20463;-71
2021/12/21 07:26:45;;;;;;;3.50;2.87;;;0.30;99.90;;;;;;5026842;28;20208;-71
2021/12/21 07:29:11;;;;;;;14.37;3.33;;;0.20;99.90;;;;;;5030425;28;20216;-71
2021/12/21 07:31:36;;;;;;;4.30;2.90;;;0.10;99.90;;;;;;5014312;28;20217;-71
2021/12/21 07:34:03;;;;;;;6.43;4.33;;;0.10;99.90;;;;;;5014038;28;20308;-72
2021/12/21 07:36:31;;;;;;;4.20;3.53;;;0.20;99.90;;;;;;5014088;28;20237;-70
2021/12/21 07:38:58;;;;;;;7.30;3.30;;;0.10;99.90;;;;;;5013697;28;20485;-71
2021/12/21 07:41:24;;;;;;;5.17;4.17;;;0.20;99.90;;;;;;5013996;28;21035;-71
2021/12/21 07:43:50;;;;;;;6.43;3.53;;;0.20;99.90;;;;;;5014466;28;20506;-72
2021/12/21 07:46:16;;;;;;;12.97;5.00;;;0.10;99.90;;;;;;5030284;28;20493;-71
2021/12/21 07:48:42;;;;;;;12.00;6.10;;;0.20;99.90;;;;;;5013583;28;20219;-71
2021/12/21 07:51:09;;;;;;;24.07;8.10;;;0.10;99.90;;;;;;5026599;28;20224;-70
2021/12/21 07:53:35;;;;;;;28.37;11.50;;;0.20;99.90;;;;;;5030130;28;20475;-71
2021/12/21 07:56:04;;;;;;;32.43;12.53;;;0.20;99.90;;;;;;5031458;28;20534;-72
2021/12/21 07:58:31;;;;;;;28.03;12.80;;;0.20;99.90;;;;;;5013316;28;20459;-69
2021/12/21 08:00:59;;;;;;;21.63;8.30;;;0.20;99.90;;;;;;5008807;28;20822;-72
2021/12/21 08:03:25;;;;;;;28.65;12.70;;;0.20;99.90;;;;;;5030515;28;20457;-71
2021/12/21 08:05:53;;;;;;;35.53;16.90;;;0.20;99.90;;;;;;5014060;28;20415;-72
2021/12/21 08:08:22;;;;;;;54.43;20.90;;;0.20;99.90;;;;;;5029391;28;20444;-72
2021/12/21 08:10:54;;;;;;;74.93;26.27;;;0.20;99.90;;;;;;5013685;28;20550;-72
2021/12/21 08:13:21;;;;;;;63.27;24.00;;;0.20;99.90;;;;;;4996539;28;20462;-72
2021/12/21 08:15:47;;;;;;;41.13;15.87;;;0.20;99.90;;;;;;5014053;28;20552;-72
2021/12/21 08:18:13;;;;;;;24.83;11.77;;;0.20;99.90;;;;;;5031271;28;20470;-72
2021/12/21 08:20:40;;;;;;;21.47;8.73;;;0.20;99.90;;;;;;5030463;28;20963;-72
2021/12/21 08:23:06;;;;;;;24.93;10.27;;;0.20;99.90;;;;;;5012753;28;20554;-71
2021/12/21 08:25:33;;;;;;;13.47;7.20;;;0.20;99.90;;;;;;5023014;28;20453;-72
2021/12/21 08:28:00;;;;;;;13.40;6.17;;;0.20;99.90;;;;;;5032949;28;20482;-72
2021/12/21 08:30:27;;;;;;;13.30;6.77;;;0.20;99.90;;;;;;5024463;28;20458;-72
2021/12/21 08:32:53;;;;;;;15.03;5.90;;;0.20;99.90;;;;;;5012534;28;20525;-72
2021/12/21 08:35:19;;;;;;;10.23;5.93;;;0.20;99.90;;;;;;5009737;28;20963;-72
2021/12/21 08:38:00;;;;;;;9.37;5.53;;;0.20;99.90;;;;;;5010109;28;20225;-72
2021/12/21 08:40:29;;;;;;;10.97;4.67;;;0.20;99.90;;;;;;4996714;28;20455;-72
2021/12/21 08:42:55;;;;;;;6.40;4.33;;;0.20;99.90;;;;;;5013138;28;20558;-72
2021/12/21 08:45:22;;;;;;;6.73;3.50;;;0.20;99.90;;;;;;5012761;28;20551;-73
2021/12/21 08:47:48;;;;;;;7.27;5.00;;;0.20;99.90;;;;;;5013530;28;20224;-72
2021/12/21 08:50:14;;;;;;;3.67;3.20;;;0.30;99.90;;;;;;5029496;28;20532;-73
2021/12/21 08:52:40;;;;;;;8.90;4.13;;;0.30;99.90;;;;;;5011394;28;20237;-73
2021/12/21 08:55:08;;;;;;;7.20;4.10;;;0.30;99.90;;;;;;5012668;28;20512;-72
2021/12/21 08:57:37;;;;;;;6.70;3.53;;;0.30;99.90;;;;;;5013217;28;20463;-72
2021/12/21 09:00:07;;;;;;;5.90;3.67;;;0.30;99.90;;;;;;5012562;28;20471;-73
2021/12/21 09:02:35;;;;;;;4.83;2.60;;;0.40;99.90;;;;;;5029786;28;20471;-73
2021/12/21 09:05:16;;;;;;;6.70;3.00;;;0.40;99.90;;;;;;5029755;28;20470;-73
2021/12/21 09:07:44;;;;;;;4.30;2.90;;;0.40;99.90;;;;;;5012973;28;20451;-73
2021/12/21 09:10:12;;;;;;;6.10;3.20;;;0.40;99.90;;;;;;5012412;28;20467;-73
2021/12/21 09:12:38;;;;;;;2.60;2.40;;;0.50;99.90;;;;;;5012395;28;20541;-73
2021/12/21 09:15:06;;;;;;;8.27;2.80;;;0.50;99.90;;;;;;5011690;28;20479;-73
2021/12/21 09:17:32;;;;;;;5.03;2.90;;;0.50;99.90;;;;;;5012188;28;20461;-71
2021/12/21 09:19:58;;;;;;;3.97;2.30;;;0.60;99.90;;;;;;5009511;28;20459;-73
2021/12/21 09:22:24;;;;;;;3.77;2.97;;;0.60;99.90;;;;;;5011538;28;20224;-73
2021/12/21 09:24:50;;;;;;;6.57;2.50;;;0.60;99.90;;;;;;5018361;28;20462;-73
2021/12/21 09:27:16;;;;;;;2.67;2.27;;;0.60;99.90;;;;;;5008977;28;20487;-74
2021/12/21 09:29:42;;;;;;;3.20;2.43;;;0.70;99.90;;;;;;5012037;28;20500;-73
2021/12/21 09:32:13;;;;;;;3.27;2.97;;;0.70;99.90;;;;;;5028907;28;20513;-73
2021/12/21 09:34:39;;;;;;;3.33;2.60;;;0.70;99.90;;;;;;5029674;28;20547;-72
2021/12/21 09:37:06;;;;;;;4.80;3.63;;;0.80;99.90;;;;;;5011714;28;20447;-73
2021/12/21 09:39:32;;;;;;;3.17;2.87;;;0.80;99.90;;;;;;5029909;28;20451;-72
2021/12/21 09:41:57;;;;;;;3.40;3.10;;;0.80;99.90;;;;;;5028313;28;20459;-74
2021/12/21 09:44:23;;;;;;;3.70;3.10;;;0.90;99.90;;;;;;5016057;28;20220;-71
2021/12/21 09:46:49;;;;;;;7.47;3.80;;;0.90;99.90;;;;;;5016475;28;20227;-73
2021/12/21 09:49:15;;;;;;;7.03;3.50;;;0.90;99.90;;;;;;5011383;28;20263;-73
2021/12/21 09:51:41;;;;;;;6.33;3.33;;;1.00;99.90;;;;;;4994048;28;20212;-74
2021/12/21 09:54:08;;;;;;;3.70;2.63;;;1.00;99.90;;;;;;5033420;28;20459;-73
2021/12/21 09:56:34;;;;;;;4.40;2.93;;;1.10;99.90;;;;;;5033909;28;20482;-74
2021/12/21 09:59:01;;;;;;;4.50;2.80;;;1.10;99.90;;;;;;5015640;28;20459;-74
2021/12/21 10:01:27;;;;;;;4.53;2.43;;;1.10;99.90;;;;;;5026015;28;20447;-73
2021/12/21 10:03:53;;;;;;;3.40;3.10;;;1.20;99.90;;;;;;5015977;28;20474;-73
2021/12/21 10:06:19;;;;;;;4.43;3.80;;;1.30;99.90;;;;;;5015651;28;20455;-74
2021/12/21 10:08:45;;;;;;;7.17;3.77;;;1.30;99.90;;;;;;5016081;28;20224;-74
2021/12/21 10:11:22;;;;;;;7.97;4.80;;;1.30;99.90;;;;;;5014510;28;20217;-74
2021/12/21 10:13:48;;;;;;;6.93;3.40;;;1.30;99.90;;;;;;5030248;28;20224;-73
2021/12/21 10:16:21;;;;;;;7.47;4.37;;;1.40;99.90;;;;;;5033303;28;20542;-74
2021/12/21 10:18:47;;;;;;;7.00;3.53;;;1.40;99.90;;;;;;5016119;28;20467;-74
2021/12/21 10:21:15;;;;;;;8.80;4.07;;;1.50;99.90;;;;;;5015514;28;20454;-73
2021/12/21 10:23:44;;;;;;;7.63;3.50;;;1.50;99.90;;;;;;5040088;28;20462;-74
2021/12/21 10:26:11;;;;;;;6.83;3.40;;;1.50;99.90;;;;;;5015811;28;20447;-74
2021/12/21 10:28:41;;;;;;;6.90;4.20;;;1.60;99.90;;;;;;4988711;28;21000;-74
2021/12/21 10:31:11;;;;;;;4.30;2.43;;;1.60;99.90;;;;;;5031987;28;20451;-72
2021/12/21 10:33:40;;;;;;;6.37;3.20;;;1.60;99.90;;;;;;5011566;28;20538;-74
2021/12/21 10:36:08;;;;;;;8.63;3.20;;;1.70;99.90;;;;;;5015141;28;20470;-73
2021/12/21 10:38:48;;;;;;;4.57;2.27;;;1.80;99.90;;;;;;5031383;28;21005;-74
2021/12/21 10:41:20;;;;;;;8.40;3.57;;;1.90;99.90;;;;;;5009662;28;20963;-73
2021/12/21 10:43:56;;;;;;;6.17;3.63;;;2.00;99.90;;;;;;5032081;28;20474;-74
2021/12/21 10:46:21;;;;;;;4.20;2.43;;;2.10;99.90;;;;;;5006636;28;20458;-73
2021/12/21 10:48:49;;;;;;;6.30;3.67;;;2.10;99.90;;;;;;5014546;28;20451;-74
2021/12/21 10:51:16;;;;;;;9.00;4.00;;;2.10;99.90;;;;;;5029510;28;20231;-73
2021/12/21 10:53:49;;;;;;;9.07;4.00;;;2.20;99.90;;;;;;5014566;28;20809;-74
2021/12/21 10:56:17;;;;;;;12.70;5.57;;;2.20;99.90;;;;;;5011857;28;20452;-74
2021/12/21 10:58:45;;;;;;;16.33;6.83;;;2.30;99.90;;;;;;4998308;28;20861;-72
2021/12/21 11:01:20;;;;;;;20.67;8.93;;;2.30;99.90;;;;;;5032474;28;20486;-73
2021/12/21 11:03:51;;;;;;;14.40;7.73;;;2.40;99.90;;;;;;5026312;28;20989;-73
2021/12/21 11:06:26;;;;;;;17.50;7.80;;;2.40;99.90;;;;;;5028831;28;20459;-73
2021/12/21 11:08:54;;;;;;;15.27;7.07;;;2.50;99.90;;;;;;5029101;28;20454;-75
2021/12/21 11:11:33;;;;;;;13.37;6.47;;;2.60;99.90;;;;;;5031465;28;20475;-73
2021/12/21 11:14:04;;;;;;;13.57;6.27;;;2.60;99.90;;;;;;5014324;28;20470;-74
2021/12/21 11:16:37;;;;;;;16.47;10.30;;;2.70;99.90;;;;;;5020043;28;20506;-73
2021/12/21 11:19:04;;;;;;;17.97;11.90;;;2.70;99.90;;;;;;5008975;28;20459;-73
2021/12/21 11:21:31;;;;;;;11.93;9.70;;;2.80;99.90;;;;;;5025680;28;20970;-73
2021/12/21 11:24:00;;;;;;;10.30;8.43;;;2.80;99.90;;;;;;5028382;28;20471;-73
2021/12/21 11:26:27;;;;;;;12.63;9.77;;;2.90;99.90;;;;;;5027667;28;20495;-73
2021/12/21 11:28:55;;;;;;;17.63;9.60;;;3.00;99.90;;;;;;5026795;28;20456;-74
2021/12/21 11:31:22;;;;;;;13.50;8.17;;;3.10;99.90;;;;;;4995340;28;20463;-73
2021/12/21 11:33:55;;;;;;;11.30;7.80;;;3.10;99.90;;;;;;5007727;28;20468;-73
2021/12/21 11:39:07;;;;;;;11.00;6.30;;;3.20;99.90;;;;;;5022390;28;20459;-72
2021/12/21 11:41:34;;;;;;;8.20;5.77;;;3.20;99.90;;;;;;5008267;28;20471;-73
2021/12/21 11:44:12;;;;;;;8.43;5.67;;;3.20;99.90;;;;;;5029424;28;20495;-74
2021/12/21 11:46:51;;;;;;;9.20;5.27;;;3.30;99.90;;;;;;5011794;28;20462;-73
2021/12/21 11:49:22;;;;;;;10.20;5.97;;;3.30;99.90;;;;;;5031565;28;20451;-73
2021/12/21 11:51:48;;;;;;;7.77;4.90;;;3.40;99.90;;;;;;5011112;28;20460;-72
2021/12/21 11:54:16;;;;;;;6.47;4.37;;;3.40;99.90;;;;;;5013199;28;20822;-73
2021/12/21 11:56:42;;;;;;;6.00;4.07;;;3.40;99.90;;;;;;5012865;28;20219;-74
2021/12/21 11:59:08;;;;;;;4.00;3.60;;;3.40;99.90;;;;;;5031148;28;20978;-73
2021/12/21 12:01:34;;;;;;;6.20;4.20;;;3.50;99.90;;;;;;5011898;28;20220;-73
2021/12/21 12:04:06;;;;;;;6.03;4.10;;;3.50;99.90;;;;;;5029301;28;20229;-73
2021/12/21 12:06:44;;;;;;;5.80;3.73;;;3.50;99.90;;;;;;5029186;28;20223;-72
2021/12/21 12:09:09;;;;;;;5.50;4.17;;;3.60;99.90;;;;;;5030353;28;20534;-73
2021/12/21 12:11:39;;;;;;;7.17;3.87;;;3.60;99.90;;;;;;5012670;28;20542;-72
2021/12/21 12:14:08;;;;;;;11.20;4.00;;;3.60;99.90;;;;;;5030021;28;20316;-73
2021/12/21 12:16:41;;;;;;;4.60;3.77;;;3.60;99.90;;;;;;5028960;28;20803;-74
2021/12/21 12:19:12;;;;;;;13.90;3.03;;;3.60;99.90;;;;;;5013637;28;20451;-73
2021/12/21 12:21:37;;;;;;;5.23;3.00;;;3.70;99.90;;;;;;5011418;28;20447;-73
2021/12/21 12:24:05;;;;;;;4.00;3.30;;;3.70;99.90;;;;;;5015783;28;20463;-73
2021/12/21 12:26:33;;;;;;;4.10;3.07;;;3.70;99.90;;;;;;5030130;28;20221;-72
2021/12/21 12:29:19;;;;;;;5.47;3.13;;;3.70;99.90;;;;;;5030063;28;20462;-74
2021/12/21 12:31:57;;;;;;;3.73;2.90;;;3.70;99.90;;;;;;5011712;28;20530;-74
2021/12/21 12:34:29;;;;;;;4.87;3.07;;;3.80;99.90;;;;;;5028468;28;20459;-74
2021/12/21 12:36:55;;;;;;;4.77;3.20;;;3.80;99.90;;;;;;5012828;28;20459;-74
2021/12/21 12:39:27;;;;;;;3.37;3.07;;;3.80;99.90;;;;;;4987738;28;20490;-73
2021/12/21 12:41:53;;;;;;;4.40;3.20;;;3.80;99.90;;;;;;5028811;28;20490;-74
2021/12/21 12:44:20;;;;;;;7.40;4.07;;;3.80;99.90;;;;;;5012937;28;20460;-74
2021/12/21 12:47:03;;;;;;;6.37;3.60;;;3.80;99.90;;;;;;5011721;28;20212;-73
2021/12/21 12:49:32;;;;;;;5.00;3.27;;;3.70;99.90;;;;;;5012339;28;20955;-74
2021/12/21 12:52:11;;;;;;;8.13;4.17;;;3.70;99.90;;;;;;5024105;28;20479;-73
2021/12/21 12:54:47;;;;;;;3.67;2.87;;;3.70;99.90;;;;;;5017963;28;20448;-74
2021/12/21 12:57:24;;;;;;;7.70;4.03;;;3.60;99.90;;;;;;5012049;28;20444;-74
2021/12/21 13:00:18;;;;;;;13.37;6.17;;;3.60;99.90;;;;;;5022653;28;20895;-74
2021/12/21 13:03:02;;;;;;;12.70;5.73;;;3.60;99.90;;;;;;5002543;28;20467;-73
2021/12/21 13:05:34;;;;;;;11.53;5.23;;;3.60;99.90;;;;;;5027780;28;20942;-73
2021/12/21 13:08:17;;;;;;;10.60;3.93;;;3.60;99.90;;;;;;5027546;28;20478;-74
2021/12/21 13:10:46;;;;;;;10.57;4.30;;;3.60;99.90;;;;;;5009664;28;20522;-73
2021/12/21 13:13:13;;;;;;;6.93;4.40;;;3.60;99.90;;;;;;4992493;28;20466;-74
2021/12/21 13:15:50;;;;;;;12.43;4.43;;;3.60;99.90;;;;;;5010135;28;20472;-74
2021/12/21 13:18:17;;;;;;;7.60;3.97;;;3.60;99.90;;;;;;5004466;28;20487;-74
2021/12/21 13:20:53;;;;;;;7.13;4.73;;;3.50;99.90;;;;;;5011504;28;20455;-74
2021/12/21 13:23:24;;;;;;;7.80;4.67;;;3.50;99.90;;;;;;5004808;28;20473;-74
2021/12/21 13:26:07;;;;;;;5.27;3.87;;;3.50;99.90;;;;;;5017116;28;20517;-74
2021/12/21 13:28:52;;;;;;;5.13;3.70;;;3.50;99.90;;;;;;5027597;28;20463;-74
2021/12/21 13:31:21;;;;;;;4.97;3.73;;;3.50;99.90;;;;;;5029405;28;20467;-75
2021/12/21 13:33:54;;;;;;;5.53;3.80;;;3.50;99.90;;;;;;5029649;28;20517;-74
2021/12/21 13:36:43;;;;;;;8.63;4.63;;;3.50;99.90;;;;;;5010483;28;20987;-75
2021/12/21 13:39:28;;;;;;;8.90;4.77;;;3.50;99.90;;;;;;5020237;28;20462;-73
2021/12/21 13:41:57;;;;;;;7.67;5.70;;;3.50;99.90;;;;;;5008575;28;20525;-74
2021/12/21 13:44:35;;;;;;;6.80;5.37;;;3.60;99.90;;;;;;5011663;28;20466;-74
2021/12/21 13:47:15;;;;;;;10.00;3.83;;;3.50;99.90;;;;;;5012514;28;20458;-74
2021/12/21 13:49:57;;;;;;;6.10;3.90;;;3.40;99.90;;;;;;5010899;28;20482;-74
2021/12/21 13:52:24;;;;;;;5.63;3.17;;;3.40;99.90;;;;;;5026557;28;20455;-73
2021/12/21 13:54:50;;;;;;;11.07;7.73;;;3.40;99.90;;;;;;5011603;28;20539;-74
2021/12/21 13:57:18;;;;;;;30.17;15.17;;;3.30;99.90;;;;;;5028293;28;20546;-74
2021/12/21 13:59:48;;;;;;;52.33;23.77;;;3.40;99.90;;;;;;5010987;28;20482;-74
2021/12/21 14:02:50;;;;;;;41.77;22.10;;;3.40;99.90;;;;;;5007785;28;20475;-74
2021/12/21 14:05:18;;;;;;;29.23;17.00;;;3.40;99.90;;;;;;5004663;28;20452;-74
2021/12/21 14:07:47;;;;;;;18.13;11.50;;;3.40;99.90;;;;;;5006788;28;20950;-74
2021/12/21 14:10:18;;;;;;;14.03;7.83;;;3.40;99.90;;;;;;5010512;28;20458;-74